Time;durP1;ratioP1;P1;durP2;ratioP2;P2;SDS_P1;SDS_P2;PMS_P1;PMS_P2;Temp;Humidity;BMP_temperature;BMP_pressure;BME280_temperature;BME280_humidity;BME280_pressure;Samples;Min_cycle;Max_cycle;Signal;HPM_P1;HPM_P2
2021/07/25 00:04:58;;;;;;;140.27;16.90;;;;;;;17.40;68.38;99196.69;10381371;28;20078;-60
2021/07/25 00:10:01;;;;;;;16.20;11.27;;;;;;;17.48;68.03;99191.47;10365995;28;20100;-60
2021/07/25 00:15:03;;;;;;;87.60;13.30;;;;;;;17.68;67.19;99195.59;10382078;28;20125;-60
2021/07/25 00:20:06;;;;;;;18.92;10.43;;;;;;;17.69;67.53;99193.75;10366010;28;20133;-60
2021/07/25 00:25:09;;;;;;;51.03;12.90;;;;;;;17.69;67.31;99196.41;10380533;28;20050;-60
2021/07/25 00:30:12;;;;;;;27.15;11.35;;;;;;;17.66;67.26;99204.66;10365058;28;20137;-60
2021/07/25 00:35:14;;;;;;;150.40;19.25;;;;;;;17.47;67.67;99194.25;10365716;28;20081;-60
2021/07/25 00:40:28;;;;;;;38.42;12.60;;;;;;;17.32;67.78;99199.25;10365161;28;20042;-60
2021/07/25 00:45:30;;;;;;;23.42;11.48;;;;;;;17.39;67.59;99191.53;10365055;28;20480;-60
2021/07/25 00:50:32;;;;;;;17.27;9.93;;;;;;;17.44;67.30;99184.84;10379876;28;21192;-60
2021/07/25 00:55:35;;;;;;;16.10;10.77;;;;;;;17.48;67.24;99190.63;10380335;28;20133;-60
2021/07/25 01:00:37;;;;;;;13.20;10.20;;;;;;;17.41;67.03;99187.75;10364644;28;20445;-60
2021/07/25 01:05:58;;;;;;;24.35;10.63;;;;;;;17.44;67.26;99192.75;10378990;28;20403;-60
2021/07/25 01:11:02;;;;;;;17.00;10.35;;;;;;;17.50;66.77;99183.38;10363914;28;20164;-60
2021/07/25 01:16:04;;;;;;;21.45;11.52;;;;;;;17.35;67.37;99169.88;10363349;28;20129;-60
2021/07/25 01:21:06;;;;;;;18.73;11.60;;;;;;;17.39;67.25;99170.38;10379040;28;20042;-59
2021/07/25 01:26:10;;;;;;;53.45;13.13;;;;;;;17.56;66.71;99161.63;10363401;28;20121;-60
2021/07/25 01:31:18;;;;;;;12.90;10.20;;;;;;;17.57;66.86;99157.97;10362788;28;20050;-60
2021/07/25 01:36:20;;;;;;;12.63;10.23;;;;;;;17.63;66.77;99174.06;10343373;28;20049;-59
2021/07/25 01:41:22;;;;;;;17.52;13.07;;;;;;;17.58;66.40;99171.06;10361922;28;20141;-60
2021/07/25 01:46:23;;;;;;;42.70;14.48;;;;;;;17.42;66.47;99170.94;10363832;28;20370;-60
2021/07/25 01:51:25;;;;;;;19.70;10.20;;;;;;;17.36;66.99;99166.25;10362701;28;20053;-60
2021/07/25 01:56:28;;;;;;;19.20;10.20;;;;;;;17.43;66.87;99175.22;10361863;28;20117;-59
2021/07/25 02:01:30;;;;;;;205.55;20.10;;;;;;;17.44;66.79;99178.69;10363694;28;20407;-60
2021/07/25 02:06:34;;;;;;;33.35;11.98;;;;;;;17.35;67.20;99169.03;10370189;28;20050;-60
2021/07/25 02:11:37;;;;;;;39.25;13.43;;;;;;;17.37;67.10;99162.63;10384353;28;20060;-60
2021/07/25 02:16:39;;;;;;;265.85;28.13;;;;;;;17.33;67.43;99166.56;10368578;28;20052;-60
2021/07/25 02:21:41;;;;;;;37.50;14.43;;;;;;;17.33;67.68;99171.84;10383895;28;20437;-60
2021/07/25 02:26:43;;;;;;;32.33;13.98;;;;;;;17.46;67.55;99164.34;10369104;28;20049;-60
2021/07/25 02:31:45;;;;;;;17.42;11.48;;;;;;;17.54;67.26;99169.72;10368799;28;20145;-60
2021/07/25 02:36:47;;;;;;;51.25;14.90;;;;;;;17.46;67.42;99156.44;10369071;28;20045;-60
2021/07/25 02:41:48;;;;;;;192.63;25.30;;;;;;;17.53;67.36;99170.69;10368998;28;20435;-60
2021/07/25 02:46:50;;;;;;;58.85;17.67;;;;;;;17.59;67.09;99164.78;10369210;28;20519;-60
2021/07/25 02:51:53;;;;;;;61.25;20.25;;;;;;;17.63;67.37;99179.34;10367784;28;20038;-60
2021/07/25 02:56:54;;;;;;;63.75;21.35;;;;;;;17.64;67.33;99186.31;10369075;28;20526;-60
2021/07/25 03:01:57;;;;;;;82.88;20.45;;;;;;;17.57;67.49;99197.63;10366246;28;20056;-60
2021/07/25 03:06:59;;;;;;;197.93;25.15;;;;;;;17.57;67.31;99198.47;10378782;28;20080;-60
2021/07/25 03:12:00;;;;;;;129.73;20.80;;;;;;;17.47;67.69;99200.38;10367886;28;20060;-59
2021/07/25 03:17:02;;;;;;;45.40;18.90;;;;;;;17.42;67.79;99197.38;10368352;28;20092;-60
2021/07/25 03:22:07;;;;;;;120.63;19.55;;;;;;;17.38;67.46;99201.31;10383199;28;20471;-60
2021/07/25 03:27:08;;;;;;;164.70;20.60;;;;;;;17.34;67.43;99199.09;10367820;28;20120;-60
2021/07/25 03:32:10;;;;;;;199.80;23.35;;;;;;;17.34;67.54;99196.47;10367451;28;20514;-60
2021/07/25 03:37:12;;;;;;;206.68;29.33;;;;;;;17.24;67.69;99183.28;10368134;28;20133;-60
2021/07/25 03:42:15;;;;;;;49.42;17.63;;;;;;;17.28;67.81;99173.25;10366306;28;20128;-60
2021/07/25 03:47:17;;;;;;;161.65;26.10;;;;;;;17.33;67.71;99169.19;10366687;28;20137;-60
2021/07/25 03:52:18;;;;;;;107.15;19.77;;;;;;;17.41;67.42;99168.44;10381552;28;20481;-60
2021/07/25 03:57:21;;;;;;;125.43;27.33;;;;;;;17.38;67.38;99168.75;10366481;28;20136;-60
2021/07/25 04:02:22;;;;;;;33.65;19.98;;;;;;;17.41;67.48;99166.63;10366643;28;20137;-60
2021/07/25 04:07:25;;;;;;;24.50;16.73;;;;;;;17.44;67.07;99187.47;10366342;28;20042;-60
2021/07/25 04:12:27;;;;;;;23.52;17.10;;;;;;;17.45;67.10;99196.22;10366402;28;20046;-60
2021/07/25 04:17:29;;;;;;;29.63;16.90;;;;;;;17.46;67.13;99200.53;10366449;28;20150;-60
2021/07/25 04:22:35;;;;;;;22.63;16.15;;;;;;;17.55;67.08;99202.25;10365752;28;20132;-60
2021/07/25 04:27:37;;;;;;;22.17;15.68;;;;;;;17.45;66.50;99202.34;10366190;28;20546;-60
2021/07/25 04:32:39;;;;;;;128.70;26.80;;;;;;;17.25;67.40;99199.97;10365200;28;20800;-60
2021/07/25 04:37:48;;;;;;;39.25;21.63;;;;;;;17.00;67.96;99207.66;10380105;28;20125;-60
2021/07/25 04:42:53;;;;;;;31.83;16.48;;;;;;;17.14;67.54;99211.59;10365195;28;20042;-60
2021/07/25 04:48:01;;;;;;;116.10;27.17;;;;;;;17.22;67.57;99205.56;10365629;28;20601;-60
2021/07/25 04:53:05;;;;;;;27.38;18.75;;;;;;;17.37;67.14;99210.19;10364596;28;20414;-60
2021/07/25 04:58:07;;;;;;;23.83;17.17;;;;;;;17.43;67.38;99211.41;10364634;28;20134;-60
2021/07/25 05:03:12;;;;;;;21.63;15.82;;;;;;;17.63;66.79;99211.06;10364519;28;20064;-59
2021/07/25 05:08:14;;;;;;;63.85;23.42;;;;;;;17.70;66.59;99216.59;10364566;28;20141;-60
2021/07/25 05:13:18;;;;;;;204.13;24.30;;;;;;;17.52;66.66;99219.25;10363734;28;20551;-60
2021/07/25 05:18:54;;;;;;;226.70;31.98;;;;;;;17.32;66.94;99223.03;10364488;28;20054;-60
2021/07/25 05:24:01;;;;;;;19.35;14.65;;;;;;;17.62;66.70;99219.16;10363113;28;20553;-59
2021/07/25 05:29:04;;;;;;;15.02;11.43;;;;;;;18.10;65.79;99222.16;10364674;28;20149;-60
2021/07/25 05:34:05;;;;;;;14.05;11.40;;;;;;;18.20;65.04;99216.78;10362494;28;20200;-60
2021/07/25 05:39:07;;;;;;;16.30;12.20;;;;;;;18.33;64.82;99215.38;10362707;28;20053;-60
2021/07/25 05:44:09;;;;;;;16.77;13.13;;;;;;;18.30;64.52;99210.38;10362929;28;20545;-60
2021/07/25 05:49:10;;;;;;;15.25;10.05;;;;;;;18.62;63.79;99215.84;10378195;28;20145;-60
2021/07/25 05:54:12;;;;;;;87.43;15.60;;;;;;;18.79;63.37;99206.09;10362908;28;20129;-60
2021/07/25 05:59:14;;;;;;;79.15;15.43;;;;;;;19.04;62.62;99205.22;10362347;28;20054;-60
2021/07/25 06:04:15;;;;;;;23.02;11.27;;;;;;;18.98;62.75;99189.94;10362289;28;20117;-60
2021/07/25 06:09:17;;;;;;;345.92;19.80;;;;;;;19.25;61.94;99195.00;10362621;28;20133;-59
2021/07/25 06:14:19;;;;;;;63.17;17.48;;;;;;;19.10;62.37;99193.97;10361778;28;20387;-59
2021/07/25 06:19:20;;;;;;;24.52;12.93;;;;;;;19.19;62.16;99203.59;10362233;28;20473;-60
2021/07/25 06:24:22;;;;;;;16.15;12.13;;;;;;;19.39;61.71;99209.41;10377078;28;20125;-60
2021/07/25 06:29:24;;;;;;;20.60;13.43;;;;;;;19.58;61.29;99213.56;10362409;28;20057;-60
2021/07/25 06:34:25;;;;;;;27.08;16.20;;;;;;;19.51;61.52;99217.84;10362479;28;20228;-60
2021/07/25 06:39:27;;;;;;;17.65;14.80;;;;;;;19.37;61.70;99222.00;10360790;28;20129;-60
2021/07/25 06:44:29;;;;;;;23.23;15.05;;;;;;;19.24;61.76;99224.28;10363179;28;20128;-60
2021/07/25 06:49:31;;;;;;;17.52;13.25;;;;;;;19.48;61.54;99234.94;10351091;28;20137;-60
2021/07/25 06:54:33;;;;;;;39.78;18.05;;;;;;;19.51;61.69;99226.66;10361217;28;20073;-60
2021/07/25 06:59:34;;;;;;;22.15;16.85;;;;;;;19.54;61.60;99225.50;10337032;28;20042;-60
2021/07/25 07:04:37;;;;;;;22.50;16.63;;;;;;;19.69;61.60;99229.13;10355703;28;20054;-60
2021/07/25 07:09:39;;;;;;;19.38;14.85;;;;;;;19.69;61.43;99229.97;10341123;28;20060;-60
2021/07/25 07:14:41;;;;;;;17.42;13.60;;;;;;;20.17;60.43;99234.44;10336291;28;20121;-60
2021/07/25 07:19:43;;;;;;;16.48;14.60;;;;;;;20.67;59.28;99234.13;10339107;28;20125;-60
2021/07/25 07:24:45;;;;;;;16.42;12.57;;;;;;;21.27;57.83;99236.97;10328084;28;20483;-60
2021/07/25 07:29:47;;;;;;;16.27;12.15;;;;;;;21.53;56.88;99222.34;10346752;28;20069;-60
2021/07/25 07:34:49;;;;;;;15.80;13.85;;;;;;;21.38;56.78;99220.63;10336031;28;20072;-60
2021/07/25 07:39:50;;;;;;;13.98;11.05;;;;;;;21.85;56.54;99227.38;10348160;28;20080;-60
2021/07/25 07:44:52;;;;;;;12.07;10.77;;;;;;;23.64;52.44;99219.66;10326471;28;20121;-60
2021/07/25 07:49:54;;;;;;;14.25;10.20;;;;;;;24.67;49.23;99219.78;10337445;28;20062;-60
2021/07/25 07:54:56;;;;;;;13.82;10.60;;;;;;;25.53;47.27;99205.69;10341217;28;20390;-60
2021/07/25 07:59:57;;;;;;;10.13;8.48;;;;;;;26.08;45.94;99191.88;10336643;28;20042;-60
2021/07/25 08:05:01;;;;;;;11.65;7.85;;;;;;;26.52;44.41;99202.72;10349198;28;20482;-60
2021/07/25 08:10:03;;;;;;;10.20;7.57;;;;;;;27.00;43.39;99191.56;10336751;28;20046;-61
2021/07/25 08:15:07;;;;;;;9.10;6.50;;;;;;;27.50;42.80;99186.09;10336045;28;20086;-61
2021/07/25 08:20:10;;;;;;;9.10;6.60;;;;;;;28.09;41.14;99190.19;10330395;28;20507;-61
2021/07/25 08:25:16;;;;;;;8.20;6.47;;;;;;;28.63;40.06;99187.53;10343265;28;20081;-61
2021/07/25 08:30:18;;;;;;;6.68;5.85;;;;;;;28.74;40.14;99184.09;10343203;28;20064;-61
2021/07/25 08:35:20;;;;;;;8.27;5.40;;;;;;;28.48;39.59;99181.75;10351305;28;20141;-61
2021/07/25 08:40:22;;;;;;;9.70;5.05;;;;;;;28.15;39.71;99179.38;10336181;28;20141;-61
2021/07/25 08:45:24;;;;;;;8.30;5.20;;;;;;;28.83;39.20;99180.03;10355089;28;20051;-61
2021/07/25 08:50:27;;;;;;;7.38;4.78;;;;;;;28.93;38.06;99172.28;10336178;28;20076;-61
2021/07/25 08:55:30;;;;;;;7.80;4.20;;;;;;;29.39;37.70;99178.91;10335224;28;20050;-61
2021/07/25 09:00:32;;;;;;;8.25;3.90;;;;;;;29.58;36.91;99169.69;10335731;28;20046;-61
2021/07/25 09:05:34;;;;;;;9.02;4.38;;;;;;;29.58;36.42;99165.09;10335185;28;20058;-61
2021/07/25 09:10:36;;;;;;;8.60;3.80;;;;;;;30.18;35.34;99165.72;10347518;28;20449;-61
2021/07/25 09:15:38;;;;;;;7.55;3.63;;;;;;;29.63;35.91;99170.63;10333628;28;20129;-61
2021/07/25 09:20:41;;;;;;;22.80;4.55;;;;;;;29.48;35.80;99159.47;10347955;28;20566;-61
2021/07/25 09:25:51;;;;;;;7.60;3.47;;;;;;;30.00;35.84;99157.78;10332387;28;20080;-61
2021/07/25 09:30:53;;;;;;;6.78;3.70;;;;;;;29.97;34.48;99157.44;10326039;28;20054;-61
2021/07/25 09:36:04;;;;;;;6.30;3.65;;;;;;;29.92;34.69;99170.75;10374460;28;20049;-61
2021/07/25 09:41:22;;;;;;;5.68;3.60;;;;;;;30.03;33.64;99161.88;10362799;28;20486;-61
2021/07/25 09:46:24;;;;;;;7.83;3.43;;;;;;;30.00;34.99;99162.34;10363380;28;20120;-61
2021/07/25 09:51:26;;;;;;;5.65;3.40;;;;;;;30.31;34.16;99159.28;10363246;28;20058;-61
2021/07/25 09:56:28;;;;;;;6.18;3.30;;;;;;;29.67;33.80;99152.09;10368912;28;20152;-61
2021/07/25 10:01:35;;;;;;;11.73;3.53;;;;;;;28.81;35.89;99157.91;10383157;28;20553;-61
2021/07/25 10:06:46;;;;;;;9.25;2.88;;;;;;;29.01;34.99;99152.31;10346242;28;20491;-61
2021/07/25 10:11:52;;;;;;;5.78;3.35;;;;;;;28.39;36.22;99161.56;10351685;28;20509;-61
2021/07/25 10:16:56;;;;;;;6.50;3.30;;;;;;;27.63;37.65;99166.38;10334957;28;20137;-61
2021/07/25 10:21:59;;;;;;;8.70;3.30;;;;;;;26.49;39.20;99176.28;10348923;28;20400;-61
2021/07/25 10:27:01;;;;;;;5.90;3.30;;;;;;;25.94;41.01;99187.53;10357173;28;20077;-61
2021/07/25 10:32:06;;;;;;;6.50;3.67;;;;;;;25.78;42.48;99188.78;10352191;28;20087;-61
2021/07/25 10:37:12;;;;;;;7.78;3.70;;;;;;;26.17;42.85;99179.06;10362431;28;20070;-61
2021/07/25 10:42:19;;;;;;;6.32;3.40;;;;;;;26.58;41.68;99174.25;10355414;28;20056;-61
2021/07/25 10:47:25;;;;;;;6.45;3.88;;;;;;;26.99;40.84;99172.00;10349204;28;20526;-61
2021/07/25 10:52:49;;;;;;;6.15;3.78;;;;;;;27.38;40.81;99163.69;10344469;28;20149;-61
2021/07/25 10:58:08;;;;;;;8.60;3.17;;;;;;;27.94;39.80;99170.91;10364647;28;20057;-62
2021/07/25 11:03:29;;;;;;;5.32;3.33;;;;;;;27.67;38.12;99180.22;10369613;28;20046;-62
2021/07/25 11:08:43;;;;;;;5.78;3.20;;;;;;;27.67;38.70;99175.66;10368914;28;20049;-62
2021/07/25 11:13:45;;;;;;;5.13;3.13;;;;;;;27.55;38.47;99160.47;10368680;28;20046;-62
2021/07/25 11:18:47;;;;;;;5.80;2.85;;;;;;;27.65;37.66;99156.25;10356699;28;20042;-62
2021/07/25 11:23:48;;;;;;;4.60;2.97;;;;;;;27.93;37.37;99159.31;10353043;28;20050;-62
2021/07/25 11:28:51;;;;;;;6.72;2.72;;;;;;;28.09;36.82;99157.94;10324653;28;20062;-62
2021/07/25 11:33:52;;;;;;;6.97;2.90;;;;;;;27.71;37.00;99157.25;10362015;28;20514;-62
2021/07/25 11:38:59;;;;;;;5.60;3.20;;;;;;;27.38;37.11;99157.50;10365978;28;20528;-62
2021/07/25 11:44:09;;;;;;;6.43;3.10;;;;;;;26.97;37.46;99166.00;10361815;28;20125;-62
2021/07/25 11:49:19;;;;;;;6.35;3.03;;;;;;;27.10;36.87;99173.97;10334561;28;20089;-62
2021/07/25 11:54:43;;;;;;;4.10;2.50;;;;;;;27.32;37.20;99171.81;10360667;28;20414;-62
2021/07/25 11:59:50;;;;;;;4.88;2.67;;;;;;;27.16;35.50;99165.09;10350273;28;20085;-62
2021/07/25 12:04:52;;;;;;;5.63;2.60;;;;;;;27.11;35.98;99164.06;10362594;28;20414;-62
2021/07/25 12:09:56;;;;;;;4.25;2.53;;;;;;;27.00;36.36;99167.41;10364274;28;20050;-62
2021/07/25 12:15:00;;;;;;;5.72;2.70;;;;;;;27.12;36.79;99166.53;10364349;28;20073;-62
2021/07/25 12:20:17;;;;;;;4.30;2.47;;;;;;;27.18;36.09;99149.59;10361576;28;20038;-63
2021/07/25 12:25:19;;;;;;;4.18;2.20;;;;;;;27.07;34.00;99158.31;10363290;28;20137;-62
2021/07/25 12:30:21;;;;;;;5.53;2.30;;;;;;;27.35;34.97;99156.06;10362045;28;20058;-62
2021/07/25 12:35:23;;;;;;;4.78;2.45;;;;;;;27.46;35.06;99159.94;10362822;28;20041;-62
2021/07/25 12:40:30;;;;;;;3.75;2.33;;;;;;;27.88;34.48;99159.16;10361984;28;20600;-62
2021/07/25 12:45:36;;;;;;;5.38;2.20;;;;;;;27.84;35.01;99165.19;10361928;28;20050;-62
2021/07/25 12:50:58;;;;;;;4.85;2.80;;;;;;;27.75;35.46;99156.59;10361868;28;20060;-62
2021/07/25 12:56:01;;;;;;;4.30;2.67;;;;;;;27.32;37.03;99159.19;10360550;28;20561;-62
2021/07/25 13:06:06;;;;;;;4.38;2.70;;;;;;;27.87;36.07;99162.88;10327395;28;20453;-62
2021/07/25 13:11:09;;;;;;;4.20;2.50;;;;;;;27.80;34.66;99164.84;10324146;28;20145;-62
2021/07/25 13:16:13;;;;;;;5.90;2.40;;;;;;;27.69;34.54;99168.19;10351502;28;20453;-62
2021/07/25 13:21:17;;;;;;;5.30;2.50;;;;;;;27.52;35.35;99163.59;10371559;28;20053;-62
2021/07/25 13:26:19;;;;;;;3.83;2.50;;;;;;;27.26;35.05;99148.50;10341013;28;20043;-62
2021/07/25 13:31:21;;;;;;;4.45;2.58;;;;;;;27.09;35.14;99156.22;10341355;28;20175;-62
2021/07/25 13:36:23;;;;;;;4.32;2.70;;;;;;;26.99;35.61;99150.50;10376259;28;20084;-62
2021/07/25 13:41:25;;;;;;;4.03;2.58;;;;;;;26.92;34.94;99149.72;10344305;28;20125;-62
2021/07/25 13:46:41;;;;;;;3.25;2.10;;;;;;;26.89;35.15;99143.97;10328032;28;20090;-62
2021/07/25 13:51:42;;;;;;;4.30;2.25;;;;;;;26.59;35.24;99147.19;10325772;28;20501;-62
2021/07/25 13:56:49;;;;;;;4.63;2.35;;;;;;;26.34;36.45;99140.06;10350016;28;20161;-62
2021/07/25 14:01:50;;;;;;;3.75;2.20;;;;;;;25.96;37.81;99131.09;10358864;28;20050;-62
2021/07/25 14:06:52;;;;;;;4.43;2.25;;;;;;;26.04;38.13;99139.72;10376097;28;20462;-62
2021/07/25 14:11:54;;;;;;;8.10;2.67;;;;;;;26.46;36.73;99135.69;10358202;28;20046;-62
2021/07/25 14:17:00;;;;;;;4.70;2.20;;;;;;;26.48;35.94;99139.81;10358204;28;20107;-62
2021/07/25 14:22:03;;;;;;;3.40;2.20;;;;;;;26.66;35.97;99137.28;10355902;28;20489;-62
2021/07/25 14:27:05;;;;;;;5.95;2.50;;;;;;;27.06;35.03;99140.53;10373043;28;20157;-62
2021/07/25 14:32:07;;;;;;;5.65;2.28;;;;;;;27.59;34.47;99132.94;10359067;28;20066;-62
2021/07/25 14:37:09;;;;;;;4.55;2.38;;;;;;;27.70;34.00;99124.19;10358918;28;20077;-62
2021/07/25 14:42:10;;;;;;;4.47;2.50;;;;;;;27.78;34.22;99126.59;10358843;28;20056;-62
2021/07/25 14:47:12;;;;;;;5.70;2.22;;;;;;;27.63;35.00;99127.97;10358796;28;20042;-62
2021/07/25 14:52:14;;;;;;;4.20;2.30;;;;;;;27.45;36.07;99116.13;10359544;28;20132;-61
2021/07/25 14:57:15;;;;;;;5.03;2.40;;;;;;;27.19;37.78;99126.25;10358505;28;20130;-61
2021/07/25 15:02:17;;;;;;;8.80;2.60;;;;;;;26.78;38.04;99128.53;10359083;28;20132;-61
2021/07/25 15:07:19;;;;;;;6.13;2.30;;;;;;;26.45;39.71;99116.09;10364805;28;20085;-61
2021/07/25 15:12:21;;;;;;;4.03;2.40;;;;;;;26.23;40.84;99128.13;10366748;28;20057;-61
2021/07/25 15:17:24;;;;;;;7.63;2.88;;;;;;;26.08;41.84;99129.44;10364311;28;20096;-62
2021/07/25 15:22:26;;;;;;;4.45;2.50;;;;;;;25.88;42.76;99119.53;10365740;28;20094;-61
2021/07/25 15:27:28;;;;;;;3.25;2.25;;;;;;;25.98;41.31;99119.13;10364985;28;20562;-61
2021/07/25 15:32:29;;;;;;;5.88;2.67;;;;;;;25.84;41.58;99120.97;10367671;28;20054;-61
2021/07/25 15:37:31;;;;;;;4.72;2.70;;;;;;;25.29;43.29;99113.38;10365836;28;20478;-61
2021/07/25 15:42:33;;;;;;;6.65;2.83;;;;;;;24.45;46.87;99124.69;10381581;28;20078;-61
2021/07/25 15:47:35;;;;;;;9.80;3.00;;;;;;;24.02;48.54;99167.56;10363747;28;20052;-61
2021/07/25 15:52:36;;;;;;;9.52;4.18;;;;;;;23.59;50.06;99187.41;10372371;28;20079;-61
2021/07/25 15:57:38;;;;;;;14.02;5.72;;;;;;;23.13;53.54;99160.25;10373824;28;20057;-61
2021/07/25 16:02:40;;;;;;;11.15;4.70;;;;;;;22.67;55.50;99149.06;10356425;28;20041;-61
2021/07/25 16:07:42;;;;;;;10.27;4.68;;;;;;;22.64;55.43;99141.44;10384023;28;20047;-61
2021/07/25 16:12:43;;;;;;;7.07;3.95;;;;;;;23.13;55.13;99138.91;10395960;28;20086;-61
2021/07/25 16:17:49;;;;;;;8.63;4.22;;;;;;;23.70;55.74;99133.47;10363622;28;20045;-61
2021/07/25 16:22:51;;;;;;;9.13;4.10;;;;;;;24.09;55.11;99120.41;10375589;28;20053;-61
2021/07/25 16:27:53;;;;;;;9.90;4.00;;;;;;;24.24;55.10;99128.28;10356799;28;20425;-61
2021/07/25 16:32:55;;;;;;;8.20;3.88;;;;;;;24.49;55.19;99128.59;10362442;28;20061;-61
2021/07/25 16:37:59;;;;;;;6.03;3.50;;;;;;;24.60;55.52;99128.00;10362036;28;20041;-61
2021/07/25 16:43:03;;;;;;;7.43;3.78;;;;;;;24.71;55.13;99133.66;10363771;28;20042;-61
2021/07/25 16:48:05;;;;;;;10.00;3.85;;;;;;;24.80;54.14;99136.94;10362646;28;20111;-61
2021/07/25 16:53:06;;;;;;;6.65;3.47;;;;;;;24.84;55.38;99139.03;10363808;28;20141;-61
2021/07/25 16:58:08;;;;;;;6.20;3.10;;;;;;;24.99;55.22;99149.56;10364990;28;20097;-61
2021/07/25 17:03:10;;;;;;;4.80;3.10;;;;;;;25.06;54.28;99158.44;10363833;28;20133;-61
2021/07/25 17:08:12;;;;;;;6.45;3.42;;;;;;;25.11;53.31;99155.97;10364178;28;20034;-61
2021/07/25 17:13:14;;;;;;;6.18;3.40;;;;;;;25.19;53.84;99152.25;10364463;28;20149;-61
2021/07/25 17:18:16;;;;;;;8.38;3.42;;;;;;;25.37;54.29;99148.00;10364046;28;20417;-61
2021/07/25 17:23:17;;;;;;;6.20;3.25;;;;;;;25.43;53.33;99141.81;10364507;28;20141;-61
2021/07/25 17:28:19;;;;;;;5.72;3.30;;;;;;;25.52;53.36;99147.78;10362869;28;20144;-61
2021/07/25 17:33:21;;;;;;;4.65;3.25;;;;;;;25.54;52.92;99143.06;10363483;28;20081;-61
2021/07/25 17:38:24;;;;;;;5.45;3.53;;;;;;;25.67;52.65;99148.41;10363632;28;20561;-61
2021/07/25 17:43:26;;;;;;;4.60;2.88;;;;;;;25.62;49.48;99138.31;10362167;28;20048;-62
2021/07/25 17:48:27;;;;;;;6.70;3.20;;;;;;;25.62;49.94;99135.66;10362135;28;20042;-61
2021/07/25 17:53:29;;;;;;;8.02;3.40;;;;;;;25.58;51.87;99155.84;10350953;28;20050;-61
2021/07/25 17:58:31;;;;;;;6.63;3.45;;;;;;;25.28;52.47;99159.06;10361209;28;20133;-61
2021/07/25 18:03:37;;;;;;;8.98;3.65;;;;;;;24.89;54.30;99160.66;10376136;28;20052;-61
2021/07/25 18:08:39;;;;;;;8.00;3.63;;;;;;;24.63;55.74;99157.03;10361492;28;20513;-61
2021/07/25 18:13:41;;;;;;;11.95;3.70;;;;;;;24.41;57.19;99161.66;10359479;28;20409;-61
2021/07/25 18:18:43;;;;;;;7.82;3.50;;;;;;;24.09;56.92;99155.13;10360220;28;20427;-61
2021/07/25 18:23:46;;;;;;;8.38;3.70;;;;;;;23.77;57.05;99158.38;10360368;28;20073;-61
2021/07/25 18:28:49;;;;;;;8.00;3.92;;;;;;;23.66;56.77;99158.91;10360554;28;20141;-61
2021/07/25 18:33:50;;;;;;;7.68;3.90;;;;;;;23.59;57.06;99173.22;10361372;28;20068;-61
2021/07/25 18:38:52;;;;;;;10.18;4.07;;;;;;;23.35;57.78;99169.88;10362577;28;20116;-61
2021/07/25 18:43:54;;;;;;;8.60;4.45;;;;;;;23.08;59.11;99162.66;10368729;28;20088;-60
2021/07/25 18:48:56;;;;;;;7.38;4.35;;;;;;;22.77;60.37;99167.44;10368666;28;20127;-61
2021/07/25 18:54:01;;;;;;;10.07;4.70;;;;;;;22.44;61.18;99164.34;10366233;28;20089;-61
2021/07/25 18:59:21;;;;;;;10.52;4.70;;;;;;;22.26;61.68;99161.25;10367596;28;20085;-60
2021/07/25 19:04:39;;;;;;;7.18;4.63;;;;;;;22.11;62.25;99167.59;10351328;28;20239;-60
2021/07/25 19:10:02;;;;;;;11.63;5.72;;;;;;;21.81;62.85;99164.03;10376836;28;20042;-60
2021/07/25 19:15:24;;;;;;;9.98;4.97;;;;;;;21.56;63.62;99165.25;10338385;28;20058;-60
2021/07/25 19:20:26;;;;;;;9.10;4.75;;;;;;;21.49;63.42;99169.66;10357326;28;20133;-60
2021/07/25 19:25:27;;;;;;;10.60;5.40;;;;;;;21.38;63.44;99165.59;10366307;28;20054;-60
2021/07/25 19:30:30;;;;;;;11.70;5.45;;;;;;;21.15;64.00;99175.34;10367796;28;20469;-60
2021/07/25 19:35:32;;;;;;;13.40;5.43;;;;;;;20.89;64.33;99188.16;10365819;28;20481;-60
2021/07/25 19:40:33;;;;;;;11.77;5.25;;;;;;;20.76;64.67;99191.41;10341031;28;20161;-60
2021/07/25 19:45:36;;;;;;;13.65;6.25;;;;;;;20.63;64.55;99198.28;10338943;28;20120;-60
2021/07/25 19:50:38;;;;;;;11.85;5.45;;;;;;;20.35;65.15;99212.97;10346874;28;20447;-60
2021/07/25 19:55:40;;;;;;;11.10;5.30;;;;;;;20.35;65.60;99223.59;10365697;28;20050;-60
2021/07/25 20:00:50;;;;;;;10.52;5.38;;;;;;;20.35;65.56;99239.53;10364683;28;20049;-60
2021/07/25 20:05:54;;;;;;;9.02;4.65;;;;;;;20.33;65.51;99242.34;10380212;28;20041;-60
2021/07/25 20:11:01;;;;;;;30.42;8.30;;;;;;;20.21;65.64;99251.69;10364644;28;20726;-60
2021/07/25 20:16:07;;;;;;;14.23;5.93;;;;;;;20.12;66.17;99265.94;10364466;28;20409;-60
2021/07/25 20:21:09;;;;;;;90.20;10.40;;;;;;;20.07;66.03;99263.00;10363783;28;20498;-60
2021/07/25 20:26:10;;;;;;;11.93;5.93;;;;;;;19.99;66.05;99284.22;10365320;28;20121;-60
2021/07/25 20:31:12;;;;;;;9.10;5.72;;;;;;;20.00;66.47;99284.06;10364652;28;20060;-60
2021/07/25 20:36:14;;;;;;;21.05;6.70;;;;;;;20.07;65.90;99281.56;10364764;28;20064;-60
2021/07/25 20:41:16;;;;;;;43.42;6.63;;;;;;;20.03;65.97;99299.63;10380124;28;20473;-60
2021/07/25 20:46:20;;;;;;;9.30;5.10;;;;;;;19.96;65.88;99308.44;10364166;28;20413;-60
2021/07/25 20:51:24;;;;;;;417.52;17.50;;;;;;;19.63;66.11;99301.41;10363980;28;20049;-60
2021/07/25 20:56:26;;;;;;;7.82;4.90;;;;;;;19.39;66.51;99305.72;10361204;28;20137;-60
2021/07/25 21:01:28;;;;;;;8.25;4.82;;;;;;;19.51;66.64;99305.38;10362898;28;20161;-60
2021/07/25 21:06:29;;;;;;;8.88;5.65;;;;;;;19.43;66.52;99317.66;10361136;28;20133;-60
2021/07/25 21:11:31;;;;;;;6.88;4.22;;;;;;;19.58;66.42;99322.31;10363391;28;20048;-60
2021/07/25 21:16:36;;;;;;;13.05;5.15;;;;;;;19.71;66.29;99322.66;10362595;28;20048;-60
2021/07/25 21:21:38;;;;;;;17.45;6.80;;;;;;;19.84;65.94;99331.84;10363430;28;20637;-60
2021/07/25 21:26:40;;;;;;;95.45;8.95;;;;;;;19.76;65.93;99330.97;10363033;28;20510;-60
2021/07/25 21:31:41;;;;;;;13.48;6.03;;;;;;;19.62;66.08;99327.13;10354848;28;20058;-60
2021/07/25 21:36:43;;;;;;;8.85;5.97;;;;;;;19.66;66.45;99325.81;10356427;28;20133;-60
2021/07/25 21:41:45;;;;;;;13.20;6.10;;;;;;;19.76;66.02;99333.59;10362288;28;20372;-60
2021/07/25 21:46:48;;;;;;;17.00;7.07;;;;;;;19.74;66.06;99340.91;10362542;28;20133;-60
2021/07/25 21:51:50;;;;;;;16.23;6.03;;;;;;;19.72;65.74;99340.25;10362054;28;20089;-60
2021/07/25 21:56:51;;;;;;;35.95;7.38;;;;;;;19.78;65.75;99336.94;10361811;28;20521;-60
2021/07/25 22:07:22;;;;;;;9.50;4.60;;;;;;;19.60;66.05;99331.78;10331145;28;20108;-60
2021/07/25 22:12:24;;;;;;;123.00;9.75;;;;;;;19.60;65.77;99336.25;10361654;28;20569;-60
2021/07/25 22:17:27;;;;;;;15.55;6.13;;;;;;;19.44;66.32;99342.31;10369012;28;20049;-60
2021/07/25 22:22:28;;;;;;;9.02;5.80;;;;;;;19.37;66.56;99351.94;10370869;28;20125;-60
2021/07/25 22:27:30;;;;;;;592.58;24.17;;;;;;;19.17;66.79;99337.28;10384718;28;20512;-60
2021/07/25 22:32:32;;;;;;;74.05;9.15;;;;;;;19.00;66.74;99328.41;10369304;28;20429;-60
2021/07/25 22:37:35;;;;;;;10.50;6.50;;;;;;;18.99;67.14;99337.34;10367394;28;20129;-60
2021/07/25 22:42:37;;;;;;;14.43;6.07;;;;;;;19.11;67.31;99332.63;10369428;28;20088;-60
2021/07/25 22:47:42;;;;;;;15.18;5.82;;;;;;;19.13;67.04;99335.94;10367151;28;20068;-60
2021/07/25 22:52:45;;;;;;;201.95;15.77;;;;;;;19.10;66.92;99321.19;10369300;28;20073;-60
2021/07/25 22:57:46;;;;;;;67.72;9.80;;;;;;;18.93;66.87;99315.97;10382926;28;20577;-60
2021/07/25 23:02:48;;;;;;;89.03;8.48;;;;;;;18.74;67.47;99308.25;10367379;28;20414;-60
2021/07/25 23:07:51;;;;;;;12.85;5.55;;;;;;;18.75;67.92;99307.28;10365627;28;20070;-60
2021/07/25 23:12:53;;;;;;;30.25;6.75;;;;;;;18.85;67.50;99300.84;10366436;28;20053;-60
2021/07/25 23:17:55;;;;;;;38.47;9.07;;;;;;;18.95;67.25;99300.72;10364667;28;20046;-60
2021/07/25 23:22:56;;;;;;;150.48;12.05;;;;;;;18.97;67.59;99302.22;10366941;28;20073;-60
2021/07/25 23:28:02;;;;;;;89.90;11.43;;;;;;;19.11;67.66;99295.53;10356433;28;20049;-60